»·PEaware :: N129BX KMHV-KSMX

N129BX :: KMHV-KSMX

FLIGHT INFORMATION

Flight Status: Arrived
Operator: Privately registered:
United States
More flights under this callsign
Pilot: Simon H. (14656)
Aircraft: Unknown
(TBM8)
More flights by this aircraft type
Origin: KMHV Mojave
United States
Destination: KSMX Santa Maria Pub/Capt Hancock
United States
More flights between these airports :: More routes between these airports
Route: +
File this flight plan on PilotEdge
Remarks:
Altitude:
(Current/Filed)
15,000ft
Speed:
(Current/Filed)
0kts
Departed: 16-Sep-17 10:35 PM
Arrived: 16-Sep-17 11:07 PM
Distance/Time
Traveled:
114nm/0:32
Distance/Time
To Go:
Arrived

Flight Plot

Page will automatically refresh every two minutes.

Flight plan parsing failed; only flown route is shown


Map Options




Map Legend


Flown Route
Filed Route
Departure Airport
Arrival Airport
Navaid (VOR, NDB)
Fix

Horizontal Profiles

Position Reports

Time Latitude Longitude Heading Altitude Ground
Speed
16-Sep-17 22:32 35.057246 -118.158043 270 2794ft 0kts
16-Sep-17 22:33 35.057246 -118.158043 270 2794ft 0kts
16-Sep-17 22:34 35.057246 -118.158043 270 2794ft 0kts
16-Sep-17 22:35 35.057246 -118.158043 270 2794ft 0kts
16-Sep-17 22:36 35.057578 -118.148584 91 2794ft 40kts
16-Sep-17 22:37 35.057583 -118.147786 79 2794ft 0kts
16-Sep-17 22:38 35.058534 -118.142599 337 2794ft 6kts
16-Sep-17 22:39 35.059216 -118.148650 270 2794ft 62kts
16-Sep-17 22:40 35.059932 -118.185478 272 3547ft 126kts
16-Sep-17 22:41 35.064859 -118.226208 280 5041ft 124kts
16-Sep-17 22:42 35.076330 -118.266597 294 6378ft 131kts
16-Sep-17 22:43 35.087891 -118.311635 282 8366ft 158kts
16-Sep-17 22:44 35.101733 -118.361011 280 10485ft 166kts
16-Sep-17 22:45 35.112065 -118.431313 275 10630ft 247kts
16-Sep-17 22:46 35.109662 -118.516895 260 10620ft 265kts
16-Sep-17 22:47 35.099464 -118.604295 261 10588ft 269kts
16-Sep-17 22:48 35.091299 -118.684426 262 10566ft 269kts
16-Sep-17 22:49 35.083212 -118.772629 261 10615ft 267kts
16-Sep-17 22:50 35.074324 -118.859765 261 10593ft 269kts
16-Sep-17 22:51 35.065203 -118.947873 261 10549ft 271kts
16-Sep-17 22:52 35.055846 -119.038002 261 10501ft 281kts
16-Sep-17 22:53 35.046309 -119.130114 261 10490ft 284kts
16-Sep-17 22:54 35.036697 -119.223104 261 10490ft 284kts
16-Sep-17 22:55 35.026895 -119.315468 260 10492ft 284kts
16-Sep-17 22:56 35.016902 -119.407626 261 10493ft 284kts
16-Sep-17 22:57 35.006743 -119.501106 261 10497ft 284kts
16-Sep-17 22:58 34.996842 -119.593002 261 10516ft 284kts
16-Sep-17 22:59 34.987516 -119.680109 260 10537ft 277kts
16-Sep-17 23:00 34.978040 -119.770045 260 10560ft 275kts
16-Sep-17 23:01 34.968034 -119.860518 259 10562ft 276kts
16-Sep-17 23:02 34.957779 -119.950754 260 10344ft 284kts
16-Sep-17 23:03 34.947845 -120.040061 260 8702ft 271kts
16-Sep-17 23:04 34.939102 -120.117263 261 7226ft 264kts
16-Sep-17 23:05 34.931802 -120.182904 263 5947ft 261kts
16-Sep-17 23:06 34.924826 -120.244337 263 4767ft 262kts
16-Sep-17 23:07 34.916684 -120.316533 263 3372ft 260kts
16-Sep-17 23:08 34.907261 -120.382900 257 2117ft 256kts
16-Sep-17 23:09 34.886605 -120.451176 229 1172ft 195kts
16-Sep-17 23:10 34.892710 -120.476762 79 660ft 130kts
16-Sep-17 23:11 34.904329 -120.458455 29 264ft 0kts
16-Sep-17 23:12 34.904329 -120.458455 29 264ft 0kts
16-Sep-17 23:13 34.904329 -120.458455 29 264ft 0kts
16-Sep-17 23:14 34.904329 -120.458455 29 264ft 0kts
16-Sep-17 23:15 34.904329 -120.458455 29 264ft 0kts
16-Sep-17 23:16 34.904329 -120.458455 29 264ft 0kts
16-Sep-17 23:17 34.904329 -120.458455 29 264ft 0kts
16-Sep-17 23:18 34.904329 -120.458455 29 264ft 0kts
16-Sep-17 23:19 34.904329 -120.458455 29 264ft 0kts
16-Sep-17 23:20 34.904329 -120.458455 29 264ft 0kts
16-Sep-17 23:21 34.904329 -120.458455 29 264ft 0kts
16-Sep-17 23:22 34.904329 -120.458455 29 264ft 0kts
16-Sep-17 23:23 34.904329 -120.458455 29 264ft 0kts
16-Sep-17 23:24 34.904329 -120.458455 29 264ft 0kts
16-Sep-17 23:25 34.904329 -120.458455 29 264ft 0kts
16-Sep-17 23:26 34.904329 -120.458455 29 264ft 0kts

Navigation Log

Ident Type
Flight plan parsing failed, navigation log unavailable